createdAt,value
2019-02-16T00:00:05.932Z,55.97
2019-02-16T00:02:38.287Z,56.19
2019-02-16T00:05:09.701Z,56.20
2019-02-16T00:07:39.203Z,56.17
2019-02-16T00:10:13.958Z,56.30
2019-02-16T00:12:44.213Z,56.43
2019-02-16T00:15:17.226Z,56.31
2019-02-16T00:17:50.126Z,56.20
2019-02-16T00:20:19.505Z,56.16
2019-02-16T00:22:50.794Z,56.09
2019-02-16T00:25:22.006Z,56.05
2019-02-16T00:27:53.263Z,56.23
2019-02-16T00:30:24.452Z,56.32
2019-02-16T00:32:55.765Z,56.39
2019-02-16T00:35:29.024Z,56.54
2019-02-16T00:37:58.415Z,56.52
2019-02-16T00:40:29.853Z,56.50
2019-02-16T00:43:02.249Z,56.72
2019-02-16T00:45:33.128Z,56.68
2019-02-16T00:48:06.440Z,56.81
2019-02-16T00:50:37.716Z,56.84
2019-02-16T00:53:07.113Z,56.68
2019-02-16T00:55:38.625Z,56.75
2019-02-16T00:58:09.482Z,56.77
2019-02-16T01:00:39.112Z,56.88
2019-02-16T01:03:08.724Z,57.07
2019-02-16T01:05:39.724Z,57.13
2019-02-16T01:08:09.196Z,57.46
2019-02-16T01:10:38.775Z,57.38
2019-02-16T01:13:08.383Z,57.43
2019-02-16T01:15:37.770Z,57.34
2019-02-16T01:18:10.177Z,57.56
2019-02-16T01:20:39.579Z,57.68
2019-02-16T01:23:09.179Z,57.42
2019-02-16T01:25:39.339Z,57.43
2019-02-16T01:28:11.987Z,57.55
2019-02-16T01:30:42.032Z,57.93
2019-02-16T01:33:11.761Z,58.13
2019-02-16T01:35:41.164Z,58.29
2019-02-16T01:38:11.006Z,58.17
2019-02-16T01:40:42.043Z,58.61
2019-02-16T01:43:11.652Z,58.65
2019-02-16T01:45:41.099Z,58.75
2019-02-16T01:48:12.297Z,58.53
2019-02-16T01:50:43.211Z,58.62
2019-02-16T01:53:12.908Z,58.63
2019-02-16T01:55:42.323Z,58.65
2019-02-16T01:58:13.029Z,58.85
2019-02-16T02:00:42.549Z,59.12
2019-02-16T02:03:13.190Z,59.12
2019-02-16T02:05:42.619Z,59.63
2019-02-16T02:08:12.155Z,59.76
2019-02-16T02:10:41.560Z,59.71
2019-02-16T02:13:12.870Z,60.01
2019-02-16T02:15:42.724Z,59.91
2019-02-16T02:18:18.625Z,59.82
2019-02-16T02:20:48.144Z,59.62
2019-02-16T02:23:18.076Z,59.54
2019-02-16T02:25:47.594Z,59.55
2019-02-16T02:28:19.624Z,59.71
2019-02-16T02:30:50.389Z,59.87
2019-02-16T02:33:20.482Z,59.98
2019-02-16T02:35:52.368Z,60.01
2019-02-16T02:38:22.106Z,60.01
2019-02-16T02:40:51.689Z,59.92
2019-02-16T02:43:21.214Z,59.82
2019-02-16T02:45:52.398Z,59.68
2019-02-16T02:48:21.892Z,59.45
2019-02-16T02:50:53.106Z,59.65
2019-02-16T02:53:30.622Z,59.60
2019-02-16T02:55:55.789Z,59.87
2019-02-16T02:58:26.583Z,59.87
2019-02-16T03:00:56.563Z,59.81
2019-02-16T03:03:26.070Z,59.83
2019-02-16T03:05:55.524Z,59.78
2019-02-16T03:08:25.083Z,59.75
2019-02-16T03:10:54.571Z,59.98
2019-02-16T03:13:24.266Z,59.89
2019-02-16T03:15:55.282Z,59.70
2019-02-16T03:18:26.390Z,59.61
2019-02-16T03:20:58.649Z,59.52
2019-02-16T03:23:30.776Z,59.46
2019-02-16T03:26:22.303Z,59.54
2019-02-16T03:29:16.633Z,59.54
2019-02-16T03:32:20.430Z,59.47
2019-02-16T03:35:20.731Z,59.51
2019-02-16T03:38:13.699Z,59.50
2019-02-16T03:40:45.835Z,59.24
2019-02-16T03:43:16.626Z,59.20
2019-02-16T03:45:46.022Z,58.94
2019-02-16T03:48:15.540Z,59.10
2019-02-16T03:50:45.033Z,58.95
2019-02-16T03:53:14.634Z,58.76
2019-02-16T03:55:44.806Z,58.46
2019-02-16T03:58:16.343Z,58.45
2019-02-16T04:00:48.448Z,58.45
2019-02-16T04:03:18.005Z,58.35
2019-02-16T04:05:47.429Z,58.38
2019-02-16T04:08:16.841Z,58.22
2019-02-16T04:10:46.484Z,58.22
2019-02-16T04:13:17.644Z,58.06
2019-02-16T04:15:47.055Z,58.16
2019-02-16T04:18:16.554Z,58.18
2019-02-16T04:20:47.329Z,58.15
2019-02-16T04:23:16.713Z,58.18
2019-02-16T04:25:46.212Z,58.34
2019-02-16T04:28:15.578Z,58.35
2019-02-16T04:30:44.997Z,58.50
2019-02-16T04:33:15.983Z,58.23
2019-02-16T04:35:45.388Z,58.34
2019-02-16T04:38:14.784Z,58.64
2019-02-16T04:40:46.477Z,58.37
2019-02-16T04:43:18.027Z,58.21
2019-02-16T04:45:47.417Z,58.25
2019-02-16T04:48:18.329Z,58.42
2019-02-16T04:50:48.812Z,58.50
2019-02-16T04:53:18.282Z,58.39
2019-02-16T04:55:47.880Z,58.28
2019-02-16T04:58:17.357Z,58.49
2019-02-16T05:00:47.061Z,58.54
2019-02-16T05:03:18.405Z,58.45
2019-02-16T05:05:47.809Z,58.58
2019-02-16T05:08:17.347Z,58.68
2019-02-16T05:10:47.081Z,58.59
2019-02-16T05:13:16.795Z,58.48
2019-02-16T05:15:48.199Z,58.63
2019-02-16T05:18:17.872Z,58.61
2019-02-16T05:20:48.691Z,58.71
2019-02-16T05:23:18.095Z,58.49
2019-02-16T05:25:50.997Z,58.55
2019-02-16T05:28:20.243Z,58.67
2019-02-16T05:30:49.812Z,58.79
2019-02-16T05:33:20.584Z,58.56
2019-02-16T05:35:50.130Z,58.75
2019-02-16T05:38:19.866Z,58.68
2019-02-16T05:40:49.659Z,58.31
2019-02-16T05:43:19.200Z,58.49
2019-02-16T05:45:50.248Z,58.33
2019-02-16T05:48:21.720Z,58.49
2019-02-16T05:50:51.386Z,58.25
2019-02-16T05:53:21.081Z,58.40
2019-02-16T05:55:52.024Z,58.10
2019-02-16T05:58:21.656Z,58.17
2019-02-16T06:00:52.426Z,57.95
2019-02-16T06:03:23.252Z,58.18
2019-02-16T06:05:52.642Z,57.85
2019-02-16T06:08:23.901Z,58.05
2019-02-16T06:10:53.510Z,58.38
2019-02-16T06:13:24.316Z,58.18
2019-02-16T06:15:53.687Z,58.46
2019-02-16T06:18:24.401Z,58.43
2019-02-16T06:20:55.221Z,58.67
2019-02-16T06:23:25.011Z,58.73
2019-02-16T06:25:57.956Z,59.07
2019-02-16T06:28:27.332Z,59.08
2019-02-16T06:30:56.706Z,59.03
2019-02-16T06:33:26.446Z,58.98
2019-02-16T06:36:20.582Z,59.06
2019-02-16T06:38:50.547Z,58.75
2019-02-16T06:41:20.493Z,58.54
2019-02-16T06:43:50.242Z,58.77
2019-02-16T06:46:21.187Z,58.70
2019-02-16T06:48:50.727Z,58.42
2019-02-16T06:51:22.840Z,58.40
2019-02-16T06:53:52.718Z,58.36
2019-02-16T06:56:45.466Z,58.21
2019-02-16T06:59:15.199Z,58.26
2019-02-16T07:01:44.997Z,58.01
2019-02-16T07:04:14.999Z,57.85
2019-02-16T07:06:45.500Z,58.11
2019-02-16T07:09:15.134Z,57.77
2019-02-16T07:11:44.949Z,57.52
2019-02-16T07:14:15.198Z,57.68
2019-02-16T07:17:02.778Z,57.73
2019-02-16T07:19:37.575Z,57.58
2019-02-16T07:22:06.937Z,57.72
2019-02-16T07:24:36.354Z,57.54
2019-02-16T07:27:06.023Z,57.70
2019-02-16T07:29:37.487Z,57.80
2019-02-16T07:32:06.936Z,57.63
2019-02-16T07:34:36.478Z,57.48
2019-02-16T07:37:05.892Z,57.77
2019-02-16T07:39:35.297Z,57.73
2019-02-16T07:42:08.447Z,57.49
2019-02-16T07:44:50.185Z,57.67
2019-02-16T07:47:43.065Z,57.57
2019-02-16T07:50:39.220Z,57.36
2019-02-16T07:53:17.449Z,57.31
2019-02-16T07:56:01.985Z,57.12
2019-02-16T07:58:50.754Z,56.51
2019-02-16T08:01:27.975Z,56.51
2019-02-16T08:04:19.124Z,56.69
2019-02-16T08:07:06.388Z,56.38
2019-02-16T08:09:54.704Z,56.03
2019-02-16T08:12:33.763Z,55.82
2019-02-16T08:15:09.004Z,55.50
2019-02-16T08:17:57.316Z,56.06
2019-02-16T08:20:48.811Z,55.49
2019-02-16T08:23:40.324Z,55.17
2019-02-16T08:26:42.518Z,54.78
2019-02-16T08:29:30.718Z,54.48
2019-02-16T08:32:25.132Z,53.99
2019-02-16T08:35:01.199Z,53.79
2019-02-16T08:37:50.763Z,53.63
2019-02-16T08:40:30.288Z,53.08
2019-02-16T08:43:10.218Z,52.46
2019-02-16T08:46:01.372Z,52.31
2019-02-16T08:49:11.301Z,51.70
2019-02-16T08:51:52.966Z,51.57
2019-02-16T08:54:34.497Z,50.21
2019-02-16T08:57:24.617Z,49.58
2019-02-16T09:00:16.116Z,49.51
2019-02-16T09:02:56.987Z,49.23
2019-02-16T09:05:34.909Z,48.02
2019-02-16T09:08:21.728Z,47.93
2019-02-16T09:11:16.389Z,48.15
2019-02-16T09:14:08.273Z,48.09
2019-02-16T09:16:47.546Z,47.20
2019-02-16T09:19:27.187Z,47.62
2019-02-16T09:25:23.477Z,47.28
2019-02-16T09:28:01.509Z,47.32
2019-02-16T09:30:49.424Z,47.15
2019-02-16T09:33:32.933Z,47.04
2019-02-16T09:36:22.819Z,46.88
2019-02-16T09:38:58.071Z,47.31
2019-02-16T09:41:53.628Z,47.10
2019-02-16T09:44:40.738Z,47.25
2019-02-16T09:47:29.693Z,47.38
2019-02-16T09:50:20.946Z,46.81
2019-02-16T09:53:06.333Z,46.79
2019-02-16T09:55:55.295Z,46.94
2019-02-16T09:58:40.107Z,47.16
2019-02-16T10:01:18.638Z,47.31
2019-02-16T10:04:15.955Z,47.41
2019-02-16T10:07:05.237Z,47.13
2019-02-16T10:09:53.545Z,47.46
2019-02-16T10:12:51.116Z,47.46
2019-02-16T10:15:52.869Z,47.20
2019-02-16T10:18:38.257Z,47.32
2019-02-16T10:21:26.991Z,47.69
2019-02-16T10:24:21.894Z,47.65
2019-02-16T10:27:15.818Z,47.76
2019-02-16T10:30:04.001Z,47.42
2019-02-16T10:32:52.287Z,47.58
2019-02-16T10:35:33.731Z,47.57
2019-02-16T10:38:22.044Z,47.27
2019-02-16T10:41:28.875Z,47.41
2019-02-16T10:44:20.052Z,46.87
2019-02-16T10:47:14.574Z,46.82
2019-02-16T10:50:09.022Z,46.73
2019-02-16T10:52:49.211Z,46.82
2019-02-16T10:55:53.222Z,46.82
2019-02-16T10:58:44.917Z,46.72
2019-02-16T11:01:42.101Z,46.86
2019-02-16T11:04:38.176Z,46.60
2019-02-16T11:07:27.482Z,46.53
2019-02-16T11:10:17.271Z,46.11
2019-02-16T11:12:56.521Z,45.59
2019-02-16T11:15:49.592Z,46.02
2019-02-16T11:18:37.943Z,45.89
2019-02-16T11:21:35.741Z,45.59
2019-02-16T11:24:36.117Z,45.65
2019-02-16T11:27:26.849Z,45.74
2019-02-16T11:30:05.378Z,46.14
2019-02-16T11:32:57.003Z,45.94
2019-02-16T11:35:45.328Z,45.71
2019-02-16T11:38:37.690Z,45.90
2019-02-16T11:41:19.031Z,45.68
2019-02-16T11:44:16.057Z,45.85
2019-02-16T11:47:01.236Z,45.50
2019-02-16T11:50:02.312Z,45.38
2019-02-16T11:52:58.014Z,45.65
2019-02-16T11:55:55.407Z,45.78
2019-02-16T11:58:46.629Z,45.68
2019-02-16T12:01:25.804Z,45.40
2019-02-16T12:04:20.983Z,45.73
2019-02-16T12:07:15.130Z,45.83
2019-02-16T12:10:00.556Z,46.00
2019-02-16T12:12:47.427Z,46.06
2019-02-16T12:15:35.257Z,45.87
2019-02-16T12:18:29.934Z,45.67
2019-02-16T12:21:37.913Z,45.81
2019-02-16T12:24:22.957Z,45.44
2019-02-16T12:27:19.788Z,45.60
2019-02-16T12:30:05.899Z,45.57
2019-02-16T12:32:51.596Z,45.69
2019-02-16T12:35:46.587Z,45.68
2019-02-16T12:38:27.774Z,45.55
2019-02-16T12:41:42.460Z,45.68
2019-02-16T12:44:30.480Z,45.51
2019-02-16T12:47:19.044Z,45.35
2019-02-16T12:49:55.083Z,45.57
2019-02-16T12:52:46.320Z,45.75
2019-02-16T12:55:44.451Z,45.70
2019-02-16T12:58:26.451Z,45.86
2019-02-16T13:01:15.193Z,45.42
2019-02-16T13:03:55.646Z,45.47
2019-02-16T13:06:46.787Z,45.76
2019-02-16T13:09:40.408Z,45.59
2019-02-16T13:12:28.874Z,45.50
2019-02-16T13:15:19.029Z,45.24
2019-02-16T13:17:58.047Z,45.37
2019-02-16T13:20:53.320Z,45.50
2019-02-16T13:23:45.601Z,45.77
2019-02-16T13:26:42.364Z,45.56
2019-02-16T13:29:30.669Z,45.55
2019-02-16T13:32:24.529Z,45.26
2019-02-16T13:35:03.422Z,45.06
2019-02-16T13:38:06.969Z,45.28
2019-02-16T13:40:50.621Z,45.55
2019-02-16T13:43:38.899Z,45.65
2019-02-16T13:46:15.972Z,45.42
2019-02-16T13:48:56.538Z,45.58
2019-02-16T13:51:43.812Z,45.63
2019-02-16T13:54:22.398Z,45.71
2019-02-16T13:57:17.403Z,45.60
2019-02-16T14:00:03.887Z,45.52
2019-02-16T14:02:54.572Z,45.67
2019-02-16T14:05:29.829Z,45.51
2019-02-16T14:08:20.879Z,45.25
2019-02-16T14:11:22.267Z,45.55
2019-02-16T14:14:19.842Z,45.28
2019-02-16T14:17:06.683Z,45.38
2019-02-16T14:19:37.955Z,45.24
2019-02-16T14:22:09.297Z,45.55
2019-02-16T14:24:59.960Z,45.32
2019-02-16T14:27:30.513Z,45.31
2019-02-16T14:30:01.500Z,45.29
2019-02-16T14:32:32.093Z,45.19
2019-02-16T14:35:03.314Z,45.14
2019-02-16T14:38:02.045Z,45.06
2019-02-16T14:40:33.417Z,44.97
2019-02-16T14:43:04.051Z,45.28
2019-02-16T14:45:36.847Z,45.18
2019-02-16T14:48:06.319Z,45.33
2019-02-16T14:50:36.814Z,45.33
2019-02-16T14:53:06.419Z,45.23
2019-02-16T14:55:36.857Z,45.59
2019-02-16T14:58:07.394Z,45.57
2019-02-16T15:00:38.218Z,45.27
2019-02-16T15:03:08.722Z,45.73
2019-02-16T15:05:38.397Z,45.93
2019-02-16T15:10:50.253Z,45.70
2019-02-16T15:13:20.760Z,45.73
2019-02-16T15:15:50.241Z,45.96
2019-02-16T15:18:21.691Z,46.04
2019-02-16T15:20:51.079Z,46.12
2019-02-16T15:23:20.488Z,46.08
2019-02-16T15:25:49.911Z,46.17
2019-02-16T15:28:19.307Z,46.25
2019-02-16T15:30:48.694Z,46.27
2019-02-16T15:33:18.213Z,46.58
2019-02-16T15:35:47.623Z,46.56
2019-02-16T15:38:18.476Z,46.50
2019-02-16T15:40:49.087Z,46.70
2019-02-16T15:43:19.596Z,46.74
2019-02-16T15:45:49.015Z,46.73
2019-02-16T15:48:18.478Z,46.96
2019-02-16T15:50:47.953Z,47.16
2019-02-16T15:53:19.161Z,47.10
2019-02-16T15:55:48.616Z,47.13
2019-02-16T15:58:19.831Z,47.25
2019-02-16T16:00:49.274Z,47.42
2019-02-16T16:03:19.995Z,47.62
2019-02-16T16:05:49.401Z,47.62
2019-02-16T16:08:38.825Z,47.86
2019-02-16T16:11:31.740Z,47.87
2019-02-16T16:14:14.386Z,48.15
2019-02-16T16:17:04.490Z,48.15
2019-02-16T16:19:54.492Z,48.28
2019-02-16T16:22:57.193Z,48.37
2019-02-16T16:25:59.141Z,48.65
2019-02-16T16:29:00.826Z,48.64
2019-02-16T16:31:51.440Z,48.77
2019-02-16T16:34:38.664Z,49.15
2019-02-16T16:37:42.643Z,49.24
2019-02-16T16:40:30.944Z,49.38
2019-02-16T16:43:37.944Z,49.72
2019-02-16T16:46:29.266Z,49.74
2019-02-16T16:49:29.674Z,49.75
2019-02-16T16:52:27.364Z,49.89
2019-02-16T16:55:23.133Z,49.99
2019-02-16T16:58:21.296Z,50.11
2019-02-16T17:01:08.269Z,50.19
2019-02-16T17:03:58.421Z,50.36
2019-02-16T17:06:53.068Z,50.67
2019-02-16T17:09:47.524Z,50.78
2019-02-16T17:12:40.815Z,50.72
2019-02-16T17:15:29.575Z,50.74
2019-02-16T17:18:16.662Z,50.67
2019-02-16T17:21:11.518Z,50.56
2019-02-16T17:24:01.115Z,50.64
2019-02-16T17:26:55.298Z,50.65
2019-02-16T17:29:35.281Z,50.63
2019-02-16T17:32:16.323Z,50.64
2019-02-16T17:35:01.807Z,50.88
2019-02-16T17:37:49.328Z,50.94
2019-02-16T17:40:43.973Z,51.04
2019-02-16T17:43:36.941Z,51.02
2019-02-16T17:46:16.047Z,51.13
2019-02-16T17:49:03.499Z,51.70
2019-02-16T17:51:58.477Z,51.60
2019-02-16T17:54:49.883Z,51.60
2019-02-16T17:57:45.060Z,51.70
2019-02-16T18:00:38.956Z,51.87
2019-02-16T18:03:28.916Z,51.92
2019-02-16T18:06:06.356Z,52.16
2019-02-16T18:08:57.979Z,52.22
2019-02-16T18:11:38.432Z,52.30
2019-02-16T18:14:27.356Z,52.29
2019-02-16T18:17:16.951Z,52.35
2019-02-16T18:20:07.937Z,52.33
2019-02-16T18:22:57.881Z,52.34
2019-02-16T18:25:58.189Z,52.73
2019-02-16T18:29:01.542Z,52.53
2019-02-16T18:31:49.725Z,52.59
2019-02-16T18:34:41.796Z,52.52
2019-02-16T18:37:28.468Z,52.78
2019-02-16T18:40:25.530Z,52.49
2019-02-16T18:43:11.915Z,52.32
2019-02-16T18:45:58.956Z,52.39
2019-02-16T18:48:44.225Z,52.47
2019-02-16T18:51:45.448Z,52.36
2019-02-16T18:54:32.731Z,52.49
2019-02-16T18:57:18.328Z,52.55
2019-02-16T19:00:16.129Z,52.67
2019-02-16T19:03:11.642Z,52.57
2019-02-16T19:06:03.404Z,52.59
2019-02-16T19:08:57.256Z,52.94
2019-02-16T19:11:46.074Z,52.79
2019-02-16T19:14:38.644Z,52.83
2019-02-16T19:17:30.138Z,53.39
2019-02-16T19:20:12.590Z,53.26
2019-02-16T19:23:02.235Z,53.28
2019-02-16T19:25:50.504Z,53.28
2019-02-16T19:28:41.853Z,53.40
2019-02-16T19:31:34.965Z,53.45
2019-02-16T19:34:32.740Z,53.74
2019-02-16T19:37:22.764Z,53.75
2019-02-16T19:40:02.388Z,53.82
2019-02-16T19:42:40.122Z,53.66
2019-02-16T19:45:29.510Z,53.75
2019-02-16T19:48:16.952Z,54.02
2019-02-16T19:51:06.256Z,53.98
2019-02-16T19:54:03.720Z,53.94
2019-02-16T19:56:41.672Z,53.96
2019-02-16T19:59:29.216Z,54.05
2019-02-16T20:02:20.358Z,54.29
2019-02-16T20:05:21.748Z,54.27
2019-02-16T20:08:08.506Z,54.38
2019-02-16T20:10:57.380Z,54.55
2019-02-16T20:13:54.946Z,54.60
2019-02-16T20:16:48.762Z,54.60
2019-02-16T20:19:44.843Z,54.63
2019-02-16T20:22:55.300Z,54.68
2019-02-16T20:25:44.376Z,54.77
2019-02-16T20:28:35.473Z,55.05
2019-02-16T20:31:27.019Z,55.50
2019-02-16T20:34:12.863Z,55.64
2019-02-16T20:37:04.998Z,55.50
2019-02-16T20:39:56.465Z,55.76
2019-02-16T20:42:49.178Z,55.73
2019-02-16T20:45:46.690Z,55.96
2019-02-16T20:48:53.167Z,56.05
2019-02-16T20:51:33.491Z,56.05
2019-02-16T20:54:36.575Z,56.15
2019-02-16T20:57:34.109Z,56.41
2019-02-16T21:00:26.671Z,56.37
2019-02-16T21:03:11.767Z,56.50
2019-02-16T21:06:00.690Z,56.48
2019-02-16T21:08:42.623Z,56.90
2019-02-16T21:11:31.911Z,57.05
2019-02-16T21:14:21.701Z,56.92
2019-02-16T21:17:21.129Z,56.92
2019-02-16T21:20:08.095Z,56.64
2019-02-16T21:22:58.422Z,56.47
2019-02-16T21:25:49.836Z,56.31
2019-02-16T21:28:29.886Z,56.42
2019-02-16T21:31:18.269Z,56.24
2019-02-16T21:33:57.009Z,56.25
2019-02-16T21:36:56.015Z,56.09
2019-02-16T21:39:50.048Z,56.08
2019-02-16T21:45:52.208Z,55.98
2019-02-16T21:48:44.324Z,56.28
2019-02-16T21:51:51.261Z,56.65
2019-02-16T21:54:51.169Z,56.66
2019-02-16T21:57:37.415Z,56.76
2019-02-16T22:00:27.218Z,56.94
2019-02-16T22:03:19.565Z,56.82
2019-02-16T22:06:14.039Z,56.94
2019-02-16T22:09:21.181Z,57.20
2019-02-16T22:12:20.407Z,57.56
2019-02-16T22:14:53.838Z,57.65
2019-02-16T22:17:23.341Z,57.77
2019-02-16T22:19:52.823Z,57.78
2019-02-16T22:22:28.375Z,57.62
2019-02-16T22:25:03.271Z,57.77
2019-02-16T22:27:34.499Z,57.74
2019-02-16T22:30:09.362Z,57.81
2019-02-16T22:32:40.346Z,57.94
2019-02-16T22:35:09.779Z,57.64
2019-02-16T22:37:39.697Z,57.49
2019-02-16T22:40:09.456Z,57.47
2019-02-16T22:42:40.132Z,57.37
2019-02-16T22:45:10.104Z,57.25
2019-02-16T22:47:41.955Z,57.09
2019-02-16T22:50:11.823Z,56.84
2019-02-16T22:52:41.628Z,56.44
2019-02-16T22:55:11.064Z,56.04
2019-02-16T22:57:40.538Z,55.69
2019-02-16T23:00:16.532Z,55.58
2019-02-16T23:02:45.932Z,55.24
2019-02-16T23:05:16.404Z,55.37
2019-02-16T23:07:46.169Z,55.34
2019-02-16T23:10:15.719Z,55.22
2019-02-16T23:12:46.226Z,55.21
2019-02-16T23:15:15.860Z,55.05
2019-02-16T23:17:47.186Z,54.82
2019-02-16T23:20:18.191Z,54.63
2019-02-16T23:22:53.526Z,54.73
2019-02-16T23:25:23.020Z,54.75
2019-02-16T23:27:55.890Z,54.82
2019-02-16T23:30:25.527Z,54.76
2019-02-16T23:32:58.230Z,54.96
2019-02-16T23:35:27.793Z,55.13
2019-02-16T23:37:57.640Z,54.86
2019-02-16T23:40:27.102Z,55.11
2019-02-16T23:42:56.474Z,55.12
2019-02-16T23:45:26.076Z,55.32
2019-02-16T23:47:55.534Z,55.35
2019-02-16T23:50:30.151Z,55.52
2019-02-16T23:53:06.409Z,55.74
2019-02-16T23:55:35.993Z,55.73
2019-02-16T23:58:08.663Z,55.84
